createdAt,value
2016-12-08T17:56:14.907Z,54.00
2016-12-08T17:56:19.023Z,54.80
2016-12-08T17:57:15.555Z,54.80
2016-12-08T17:58:12.852Z,54.80
2016-12-08T17:59:13.068Z,54.70
2016-12-08T18:00:13.296Z,54.80
2016-12-08T18:01:13.599Z,55.10
2016-12-08T18:02:13.114Z,55.20
2016-12-08T18:03:14.094Z,55.50
2016-12-08T18:04:13.450Z,55.20
2016-12-08T18:05:12.976Z,55.50
2016-12-08T18:06:13.309Z,55.50
2016-12-08T18:07:13.540Z,55.50
2016-12-08T18:08:12.867Z,55.40
2016-12-08T18:09:10.955Z,is
2016-12-08T18:10:13.506Z,55.40
2016-12-08T18:11:13.067Z,55.40
2016-12-08T18:12:13.728Z,55.30
2016-12-08T18:13:13.322Z,55.50
2016-12-08T18:14:13.951Z,55.50
2016-12-08T18:15:09.828Z,is
2016-12-08T18:16:13.349Z,55.70
2016-12-08T18:17:13.866Z,55.80
2016-12-08T18:18:13.466Z,55.20
2016-12-08T18:19:12.442Z,55.80
2016-12-08T18:20:13.108Z,55.90
2016-12-08T18:21:13.837Z,56.10
2016-12-08T18:22:13.685Z,56.90
2016-12-08T18:23:13.389Z,56.30
2016-12-08T18:24:14.814Z,56.10
2016-12-08T18:25:14.255Z,56.10
2016-12-08T18:26:13.849Z,56.20
2016-12-08T18:27:13.581Z,56.20
2016-12-08T18:28:14.182Z,56.30
2016-12-08T18:29:13.698Z,56.20
2016-12-08T18:30:13.571Z,56.20
2016-12-08T18:31:14.134Z,56.00
2016-12-08T18:32:13.864Z,56.20
2016-12-08T18:33:13.371Z,56.30
2016-12-08T18:34:14.039Z,56.30
2016-12-08T18:35:12.842Z,56.20
2016-12-08T18:36:13.632Z,56.30
2016-12-08T18:37:13.846Z,56.40
2016-12-08T18:38:14.012Z,56.60
2016-12-08T18:39:13.882Z,56.50
2016-12-08T18:40:10.915Z,is
2016-12-08T18:41:13.874Z,56.50
2016-12-08T18:42:13.931Z,56.50
2016-12-08T18:43:12.761Z,56.50
2016-12-08T18:44:13.464Z,56.30
2016-12-08T18:45:13.319Z,56.40
2016-12-08T18:46:13.666Z,56.70
2016-12-08T18:47:12.908Z,56.40
2016-12-08T18:48:13.142Z,56.50
2016-12-08T18:49:12.987Z,56.20
2016-12-08T18:50:14.175Z,55.90
2016-12-08T18:51:13.629Z,56.40
2016-12-08T18:52:09.751Z,is
2016-12-08T18:53:12.324Z,56.40
2016-12-08T18:54:13.198Z,56.60
2016-12-08T18:55:12.818Z,56.80
2016-12-08T18:56:12.759Z,56.90
2016-12-08T18:57:14.370Z,57.10
2016-12-08T18:58:12.302Z,57.00
2016-12-08T18:59:10.856Z,is
2016-12-08T19:00:13.299Z,56.50
2016-12-08T19:01:09.758Z,is
2016-12-08T19:10:29.261Z,55.90
2016-12-08T19:11:15.033Z,55.50
2016-12-08T19:12:16.663Z,55.50
2016-12-08T19:13:11.863Z,55.40
2016-12-08T19:14:13.506Z,55.40
2016-12-08T19:15:13.160Z,55.90
2016-12-08T19:16:13.633Z,55.80
2016-12-08T19:17:13.588Z,55.50
2016-12-08T19:18:13.359Z,55.90
2016-12-08T19:19:13.154Z,55.90
2016-12-08T19:20:13.469Z,56.50
2016-12-08T19:21:12.808Z,56.50
2016-12-08T19:22:13.195Z,56.50
2016-12-08T19:23:13.648Z,56.60
2016-12-08T19:24:13.102Z,56.50
2016-12-08T19:25:13.905Z,56.50
2016-12-08T19:26:13.188Z,56.80
2016-12-08T19:27:13.451Z,56.80
2016-12-08T19:28:13.138Z,56.40
2016-12-08T19:29:13.501Z,56.70
2016-12-08T19:30:12.963Z,57.10
2016-12-08T19:31:14.027Z,57.20
2016-12-08T19:32:10.588Z,is
2016-12-08T19:33:09.821Z,is
2016-12-08T19:34:13.530Z,57.40
2016-12-08T19:35:13.552Z,57.40
2016-12-08T19:36:13.117Z,57.50
2016-12-08T19:37:09.597Z,is
2016-12-08T19:38:13.838Z,57.30
2016-12-08T19:39:14.095Z,57.50
2016-12-08T19:40:14.309Z,57.30
2016-12-08T19:41:13.814Z,57.00
2016-12-08T19:42:14.172Z,57.20
2016-12-08T19:43:13.211Z,57.10
2016-12-08T19:44:13.910Z,57.20
2016-12-08T19:45:09.232Z,is
2016-12-08T19:46:13.023Z,57.10
2016-12-08T19:47:13.237Z,57.20
2016-12-08T19:48:13.859Z,57.40
2016-12-08T19:49:12.938Z,57.20
2016-12-08T19:50:14.055Z,57.40
2016-12-08T19:51:14.217Z,57.20
2016-12-08T19:52:13.431Z,57.40
2016-12-08T19:53:13.458Z,57.30
2016-12-08T19:54:12.096Z,57.30
2016-12-08T19:55:14.982Z,57.30
2016-12-08T19:56:12.881Z,57.50
2016-12-08T19:57:14.039Z,57.40
2016-12-08T19:58:13.166Z,57.20
2016-12-08T19:59:14.244Z,57.40
2016-12-08T20:00:14.304Z,57.30
2016-12-08T20:01:14.392Z,57.50
2016-12-08T20:02:12.312Z,57.60
2016-12-08T20:03:13.519Z,57.50
2016-12-08T20:04:13.829Z,57.50
2016-12-08T20:05:13.161Z,57.60
2016-12-08T20:06:13.373Z,57.50
2016-12-08T20:07:12.654Z,57.80
2016-12-08T20:08:13.669Z,57.50
2016-12-08T20:09:13.259Z,57.60
2016-12-08T20:10:14.916Z,57.50
2016-12-08T20:11:12.689Z,57.50
2016-12-08T20:12:12.804Z,57.60
2016-12-08T20:13:12.991Z,57.70
2016-12-08T20:14:13.667Z,57.50
2016-12-08T20:15:12.717Z,57.50
2016-12-08T20:16:14.258Z,57.40
2016-12-08T20:17:11.536Z,is
2016-12-08T20:18:12.948Z,57.60
2016-12-08T20:19:12.325Z,57.40
2016-12-08T20:20:13.238Z,57.50
2016-12-08T20:21:13.083Z,57.20
2016-12-08T20:22:10.160Z,is
2016-12-08T20:23:11.419Z,57.20
2016-12-08T20:24:11.565Z,57.20
2016-12-08T20:25:14.542Z,57.30
2016-12-08T20:26:12.992Z,57.30
2016-12-08T20:27:10.327Z,is
2016-12-08T20:28:13.738Z,57.50
2016-12-08T20:29:12.782Z,57.30
2016-12-08T20:30:12.168Z,57.10
2016-12-08T20:31:13.034Z,57.60
2016-12-08T20:32:13.923Z,57.00
2016-12-08T20:33:10.904Z,is
2016-12-08T20:34:12.970Z,56.60
2016-12-08T20:35:13.500Z,56.60
2016-12-08T20:36:12.453Z,56.70
2016-12-08T20:37:12.844Z,56.50
2016-12-08T20:38:11.922Z,56.50
2016-12-08T20:39:12.425Z,56.60
2016-12-08T20:40:12.999Z,56.70
2016-12-08T20:41:12.765Z,57.10
2016-12-08T20:42:12.723Z,56.90
2016-12-08T20:43:12.409Z,57.00
2016-12-08T20:44:11.873Z,56.90
2016-12-08T20:45:12.396Z,57.00
2016-12-08T20:46:12.560Z,57.10
2016-12-08T20:47:12.325Z,57.00
2016-12-08T20:48:12.293Z,57.00
2016-12-08T20:49:10.406Z,is
2016-12-08T20:50:12.738Z,57.10
2016-12-08T20:51:12.131Z,57.10
2016-12-08T20:52:15.054Z,57.10
2016-12-08T20:53:12.332Z,57.00
2016-12-08T20:54:13.850Z,57.00
2016-12-08T20:55:13.502Z,56.60
2016-12-08T20:56:12.645Z,56.80
2016-12-08T20:57:12.515Z,56.80
2016-12-08T20:58:12.512Z,56.70
2016-12-08T20:59:11.777Z,56.70
2016-12-08T21:00:12.152Z,56.50
2016-12-08T21:01:13.310Z,56.70
2016-12-08T21:02:15.853Z,56.70
2016-12-08T21:03:11.885Z,56.80
2016-12-08T21:04:12.749Z,56.90
2016-12-08T21:05:12.869Z,56.90
2016-12-08T21:06:13.269Z,56.70
2016-12-08T21:07:12.650Z,56.60
2016-12-08T21:08:13.453Z,56.50
2016-12-08T21:09:10.407Z,is
2016-12-08T21:10:13.512Z,57.00
2016-12-08T21:11:13.079Z,57.10
2016-12-08T21:12:12.059Z,57.20
2016-12-08T21:13:12.579Z,57.30
2016-12-08T21:14:12.946Z,57.20
2016-12-08T21:15:13.135Z,57.20
2016-12-08T21:16:12.676Z,57.30
2016-12-08T21:17:13.603Z,57.40
2016-12-08T21:18:12.256Z,57.50
2016-12-08T21:19:12.823Z,57.50
2016-12-08T21:20:12.108Z,57.40
2016-12-08T21:21:13.792Z,57.40
2016-12-08T21:22:10.651Z,is
2016-12-08T21:23:14.232Z,57.60
2016-12-08T21:24:12.749Z,57.70
2016-12-08T21:25:13.926Z,57.80
2016-12-08T21:26:14.587Z,57.70
2016-12-08T21:27:11.926Z,57.60
2016-12-08T21:28:12.836Z,57.90
2016-12-08T21:29:12.404Z,57.60
2016-12-08T21:30:13.502Z,57.60
2016-12-08T21:31:12.949Z,57.60
2016-12-08T21:32:15.517Z,57.70
2016-12-08T21:33:12.173Z,57.70
2016-12-08T21:34:13.484Z,57.70
2016-12-08T21:35:11.544Z,57.70
2016-12-08T21:36:11.774Z,57.80
2016-12-08T21:37:12.965Z,57.80
2016-12-08T21:38:13.451Z,58.00
2016-12-08T21:39:12.150Z,57.70
2016-12-08T21:40:14.823Z,57.70
2016-12-08T21:41:12.913Z,57.80
2016-12-08T21:42:12.876Z,57.90
2016-12-08T21:43:13.449Z,57.80
2016-12-08T21:44:12.779Z,57.80
2016-12-08T21:45:13.164Z,57.80
2016-12-08T21:46:12.085Z,57.70
2016-12-08T21:47:11.963Z,57.80
2016-12-08T21:48:14.082Z,57.90
2016-12-08T21:49:13.430Z,57.90
2016-12-08T21:50:10.393Z,is
2016-12-08T21:51:12.583Z,57.70
2016-12-08T21:52:12.289Z,57.70
2016-12-08T21:53:13.250Z,57.70
2016-12-08T21:54:12.867Z,57.70
2016-12-08T21:55:14.026Z,57.60
2016-12-08T21:56:13.152Z,57.80
2016-12-08T21:57:13.326Z,57.70
2016-12-08T21:58:13.888Z,57.60
2016-12-08T21:59:12.293Z,57.60
2016-12-08T22:00:12.989Z,57.70
2016-12-08T22:01:12.952Z,57.70
2016-12-08T22:02:12.034Z,57.60
2016-12-08T22:03:13.846Z,57.60
2016-12-08T22:04:18.829Z,57.60
2016-12-08T22:05:12.752Z,57.60
2016-12-08T22:06:13.308Z,57.60
2016-12-08T22:07:12.921Z,57.60
2016-12-08T22:08:13.640Z,57.70
2016-12-08T22:09:12.296Z,57.50
2016-12-08T22:10:15.270Z,57.70
2016-12-08T22:11:12.963Z,57.60
2016-12-08T22:12:12.483Z,57.60
2016-12-08T22:13:13.198Z,57.60
2016-12-08T22:14:12.186Z,57.40
2016-12-08T22:15:13.247Z,57.60
2016-12-08T22:16:13.748Z,57.60
2016-12-08T22:17:11.867Z,57.40
2016-12-08T22:18:12.498Z,57.50
2016-12-08T22:19:11.659Z,57.50
2016-12-08T22:20:12.224Z,57.40
2016-12-08T22:21:12.619Z,57.50
2016-12-08T22:22:09.492Z,is
2016-12-08T22:23:12.940Z,57.50
2016-12-08T22:24:11.982Z,57.40
2016-12-08T22:25:14.719Z,57.40
2016-12-08T22:26:09.880Z,is
2016-12-08T22:27:13.510Z,57.50
2016-12-08T22:28:11.857Z,57.40
2016-12-08T22:29:12.089Z,57.40
2016-12-08T22:30:12.649Z,57.30
2016-12-08T22:31:12.126Z,57.40
2016-12-08T22:32:12.774Z,57.50
2016-12-08T22:33:11.724Z,57.20
2016-12-08T22:34:12.526Z,57.40
2016-12-08T22:35:12.000Z,57.30
2016-12-08T22:36:10.755Z,is
2016-12-08T22:37:12.442Z,57.20
2016-12-08T22:38:11.946Z,57.30
2016-12-08T22:39:14.217Z,57.30
2016-12-08T22:40:13.490Z,57.20
2016-12-08T22:41:11.409Z,57.30
2016-12-08T22:42:11.341Z,57.20
2016-12-08T22:43:12.431Z,57.20
2016-12-08T22:44:11.972Z,57.20
2016-12-08T22:45:13.560Z,57.20
2016-12-08T22:46:12.653Z,57.20
2016-12-08T22:47:12.957Z,57.20
2016-12-08T22:48:13.135Z,57.20
2016-12-08T22:49:12.477Z,57.10
2016-12-08T22:50:12.095Z,57.20
2016-12-08T22:51:12.353Z,57.00
2016-12-08T22:52:11.925Z,57.00
2016-12-08T22:53:12.615Z,57.10
2016-12-08T22:54:11.578Z,57.10
2016-12-08T22:55:13.486Z,57.10
2016-12-08T22:56:13.556Z,57.30
2016-12-08T22:57:12.204Z,57.10
2016-12-08T22:58:12.645Z,57.00
2016-12-08T22:59:12.805Z,57.20
2016-12-08T23:00:12.454Z,57.10
2016-12-08T23:01:11.747Z,57.10
2016-12-08T23:02:12.296Z,57.10
2016-12-08T23:03:15.162Z,57.00
2016-12-08T23:04:12.547Z,57.00
2016-12-08T23:05:13.283Z,57.30
2016-12-08T23:06:13.139Z,57.10
2016-12-08T23:07:12.680Z,57.00
2016-12-08T23:08:11.708Z,57.00
2016-12-08T23:09:11.749Z,57.00
2016-12-08T23:10:12.768Z,57.00
2016-12-08T23:11:13.365Z,57.10
2016-12-08T23:12:12.239Z,57.00
2016-12-08T23:13:14.289Z,57.10
2016-12-08T23:14:12.176Z,57.00
2016-12-08T23:15:12.739Z,57.00
2016-12-08T23:16:12.126Z,57.00
2016-12-08T23:17:12.218Z,57.00
2016-12-08T23:18:13.490Z,57.00
2016-12-08T23:19:10.305Z,is
2016-12-08T23:20:12.682Z,57.00
2016-12-08T23:21:12.608Z,57.10
2016-12-08T23:22:12.179Z,57.00
2016-12-08T23:23:12.834Z,57.00
2016-12-08T23:24:11.748Z,56.80
2016-12-08T23:25:12.751Z,57.00
2016-12-08T23:26:12.500Z,57.00
2016-12-08T23:27:10.135Z,is
2016-12-08T23:28:11.602Z,56.90
2016-12-08T23:29:12.130Z,56.90
2016-12-08T23:30:11.997Z,56.90
2016-12-08T23:31:13.331Z,56.90
2016-12-08T23:32:12.358Z,56.90
2016-12-08T23:33:11.127Z,is
2016-12-08T23:34:12.201Z,56.70
2016-12-08T23:35:12.097Z,56.80
2016-12-08T23:36:14.649Z,56.70
2016-12-08T23:37:11.687Z,56.70
2016-12-08T23:38:09.873Z,is
2016-12-08T23:39:13.770Z,56.80
2016-12-08T23:40:12.850Z,56.70
2016-12-08T23:41:12.365Z,56.80
2016-12-08T23:42:12.913Z,56.80
2016-12-08T23:43:12.193Z,56.70
2016-12-08T23:44:12.138Z,56.70
2016-12-08T23:45:12.918Z,56.70
2016-12-08T23:46:12.282Z,56.70
2016-12-08T23:47:13.931Z,56.80
2016-12-08T23:48:12.765Z,56.70
2016-12-08T23:49:11.812Z,56.70
2016-12-08T23:50:12.392Z,56.80
2016-12-08T23:51:13.053Z,56.90
2016-12-08T23:52:12.546Z,56.70
2016-12-08T23:53:13.195Z,56.80
2016-12-08T23:54:12.571Z,56.70
2016-12-08T23:55:11.278Z,is
2016-12-08T23:56:11.419Z,56.70
2016-12-08T23:57:10.352Z,is
2016-12-08T23:58:12.820Z,56.70
2016-12-08T23:59:12.538Z,56.80
